Time;durP1;ratioP1;P1;durP2;ratioP2;P2;SDS_P1;SDS_P2;PMS_P1;PMS_P2;Temp;Humidity;BMP_temperature;BMP_pressure;BME280_temperature;BME280_humidity;BME280_pressure;Samples;Min_cycle;Max_cycle;Signal;HPM_P1;HPM_P2
2022/07/25 00:00:35;;;;;;;5.30;4.90;;;;;;;13.70;71.59;100122.30;212893;1277;140274;-67
2022/07/25 00:05:39;;;;;;;5.60;5.10;;;;;;;13.80;71.43;100122.52;212954;1276;140590;-66
2022/07/25 00:10:42;;;;;;;4.60;4.20;;;;;;;13.72;71.32;100123.27;213482;1277;140726;-65
2022/07/25 00:15:46;;;;;;;6.10;5.60;;;;;;;13.57;71.41;100120.31;213144;1277;141223;-64
2022/07/25 00:20:49;;;;;;;5.30;4.80;;;;;;;13.45;71.63;100115.95;213312;1278;140238;-67
2022/07/25 00:25:52;;;;;;;6.30;5.80;;;;;;;13.45;71.92;100114.13;214854;1277;140935;-66
2022/07/25 00:30:54;;;;;;;4.80;3.90;;;;;;;13.48;71.99;100107.52;214200;1277;141410;-67
2022/07/25 00:35:57;;;;;;;4.60;4.30;;;;;;;13.41;71.67;100105.61;214061;1278;140429;-67
2022/07/25 00:41:01;;;;;;;8.10;4.90;;;;;;;13.33;71.97;100104.48;214241;1277;140093;-68
2022/07/25 00:46:04;;;;;;;4.30;4.00;;;;;;;13.21;71.99;100100.94;214445;1277;150679;-65
2022/07/25 00:51:08;;;;;;;5.00;4.50;;;;;;;13.05;71.90;100097.34;215593;1277;139906;-65
2022/07/25 00:56:10;;;;;;;5.40;4.00;;;;;;;12.98;72.39;100098.17;215065;1277;222008;-65
2022/07/25 01:01:13;;;;;;;7.90;4.40;;;;;;;13.00;72.61;100096.60;214245;1277;140858;-65
2022/07/25 01:06:16;;;;;;;4.20;3.90;;;;;;;13.04;72.94;100095.84;213931;1277;140294;-65
2022/07/25 01:11:20;;;;;;;5.40;4.40;;;;;;;13.01;72.70;100095.71;213182;1277;140736;-64
2022/07/25 01:16:23;;;;;;;4.90;4.40;;;;;;;12.91;72.83;100094.04;213961;1277;139673;-65
2022/07/25 01:21:26;;;;;;;4.80;4.40;;;;;;;12.82;72.72;100088.11;214745;1277;161978;-65
2022/07/25 01:26:29;;;;;;;4.40;4.10;;;;;;;12.80;73.24;100095.95;213122;1278;141032;-65
2022/07/25 01:31:31;;;;;;;5.00;4.50;;;;;;;12.90;73.25;100095.25;213450;1277;141268;-65
2022/07/25 01:36:34;;;;;;;6.20;5.10;;;;;;;12.94;73.42;100095.54;214244;1279;141298;-67
2022/07/25 01:41:36;;;;;;;6.10;4.90;;;;;;;12.88;73.24;100089.70;213737;1277;140727;-65
2022/07/25 01:46:39;;;;;;;4.70;4.40;;;;;;;12.76;73.17;100089.50;213037;1278;141044;-66
2022/07/25 01:51:43;;;;;;;4.70;4.40;;;;;;;12.64;73.31;100087.13;212942;1278;140686;-64
2022/07/25 01:56:45;;;;;;;7.20;5.30;;;;;;;12.54;73.34;100077.31;212941;1279;141611;-65
2022/07/25 02:01:51;;;;;;;35.40;6.50;;;;;;;12.47;73.64;100073.03;213601;1277;141653;-64
2022/07/25 02:06:54;;;;;;;5.80;5.10;;;;;;;12.41;73.74;100065.28;213175;1278;141852;-63
2022/07/25 02:11:56;;;;;;;6.20;5.70;;;;;;;12.35;73.92;100065.63;212778;1278;141254;-64
2022/07/25 02:17:01;;;;;;;4.30;4.00;;;;;;;12.39;74.56;100059.13;213758;1278;141800;-64
2022/07/25 02:22:04;;;;;;;5.10;4.60;;;;;;;12.49;74.72;100055.20;213280;1278;141406;-64
2022/07/25 02:27:08;;;;;;;8.10;5.10;;;;;;;12.61;74.65;100056.25;213307;1278;141509;-64
2022/07/25 02:32:10;;;;;;;5.40;4.90;;;;;;;12.67;74.51;100058.09;214378;1277;141631;-64
2022/07/25 02:37:13;;;;;;;8.00;5.20;;;;;;;12.65;74.23;100055.64;213151;1278;141432;-66
2022/07/25 02:42:17;;;;;;;5.10;4.70;;;;;;;12.54;74.26;100057.27;215459;1278;143024;-67
2022/07/25 02:47:21;;;;;;;6.70;5.70;;;;;;;12.57;74.46;100061.27;215264;1278;142151;-65
2022/07/25 02:52:25;;;;;;;5.90;5.20;;;;;;;12.64;74.02;100057.55;215135;1277;141092;-65
2022/07/25 02:57:27;;;;;;;9.80;4.90;;;;;;;12.64;74.16;100066.06;215307;1278;140118;-66
2022/07/25 03:02:29;;;;;;;6.00;4.80;;;;;;;12.68;74.24;100062.65;214553;1277;142052;-65
2022/07/25 03:07:34;;;;;;;4.80;4.40;;;;;;;12.62;73.90;100061.30;213259;1277;140178;-64
2022/07/25 03:12:38;;;;;;;5.10;4.70;;;;;;;12.51;73.95;100059.83;214820;1277;139871;-65
2022/07/25 03:17:41;;;;;;;7.90;4.80;;;;;;;12.45;74.04;100063.32;213798;1277;222689;-65
2022/07/25 03:22:44;;;;;;;5.70;4.50;;;;;;;12.43;74.39;100068.58;213316;1277;141487;-65
2022/07/25 03:27:51;;;;;;;7.40;5.30;;;;;;;12.44;74.51;100069.88;213851;1278;140778;-65
2022/07/25 03:32:54;;;;;;;7.00;4.90;;;;;;;12.58;75.17;100069.58;212841;1277;140608;-65
2022/07/25 03:37:56;;;;;;;6.20;5.40;;;;;;;12.77;74.84;100073.15;213544;1278;141885;-65
2022/07/25 03:42:59;;;;;;;5.40;4.90;;;;;;;13.00;74.85;100075.31;213372;1277;140012;-65
2022/07/25 03:48:02;;;;;;;5.40;4.50;;;;;;;13.21;74.50;100077.96;213470;1278;140674;-65
2022/07/25 03:53:05;;;;;;;5.10;4.70;;;;;;;13.25;74.30;100080.76;213457;1278;142339;-64
2022/07/25 03:58:13;;;;;;;7.50;6.90;;;;;;;13.29;74.98;100079.66;212888;1279;140529;-65
2022/07/25 04:03:17;;;;;;;7.80;6.60;;;;;;;13.54;75.56;100070.66;212872;1278;141382;-65
2022/07/25 04:08:20;;;;;;;6.60;5.90;;;;;;;13.96;75.06;100061.17;213432;1278;140409;-64
2022/07/25 04:13:24;;;;;;;6.20;5.70;;;;;;;14.17;75.20;100055.73;213228;1278;140406;-64
2022/07/25 04:18:27;;;;;;;7.20;6.50;;;;;;;14.45;74.92;100054.46;213067;1279;141654;-64
2022/07/25 04:23:30;;;;;;;8.30;7.50;;;;;;;14.81;75.05;100052.73;213747;1278;140201;-64
2022/07/25 04:28:33;;;;;;;6.60;6.00;;;;;;;15.46;74.43;100052.81;214219;1278;141512;-65
2022/07/25 04:33:37;;;;;;;10.80;6.50;;;;;;;15.70;74.47;100048.25;213137;1278;140287;-64
2022/07/25 04:38:40;;;;;;;8.10;5.80;;;;;;;16.06;74.25;100047.66;214869;1278;140157;-64
2022/07/25 04:43:43;;;;;;;9.30;6.80;;;;;;;16.55;73.81;100044.97;215628;1278;140669;-65
2022/07/25 04:48:51;;;;;;;4.90;4.40;;;;;;;16.84;73.18;100046.10;214751;1278;140142;-65
2022/07/25 04:53:55;;;;;;;5.00;4.60;;;;;;;17.72;71.95;100038.51;215440;1278;141073;-65
2022/07/25 04:58:57;;;;;;;6.40;5.90;;;;;;;18.23;71.11;100037.10;215116;1278;140515;-65
2022/07/25 05:04:05;;;;;;;5.10;4.70;;;;;;;18.74;70.43;100029.99;214906;1277;140444;-65
2022/07/25 05:09:09;;;;;;;4.80;4.30;;;;;;;20.28;67.61;100023.63;213535;1278;140362;-65
2022/07/25 05:14:13;;;;;;;4.40;4.00;;;;;;;20.08;67.75;100019.17;213119;1279;140021;-65
2022/07/25 05:19:16;;;;;;;6.40;4.10;;;;;;;19.76;67.66;100009.51;213104;1278;140520;-66
2022/07/25 05:24:19;;;;;;;5.20;3.90;;;;;;;21.22;65.78;100003.02;213156;1278;151826;-65
2022/07/25 05:29:22;;;;;;;4.90;3.90;;;;;;;25.77;61.27;100002.60;213062;1279;139978;-64
2022/07/25 05:34:26;;;;;;;3.10;2.90;;;;;;;29.15;57.28;100003.09;213729;1277;140604;-65
2022/07/25 05:39:30;;;;;;;2.20;2.10;;;;;;;31.99;51.85;99999.09;213093;1279;140372;-65
2022/07/25 05:44:34;;;;;;;2.10;1.90;;;;;;;33.89;47.89;99996.15;213670;1278;139753;-64
2022/07/25 05:49:37;;;;;;;1.30;1.30;;;;;;;35.26;44.05;100005.06;213722;1277;139468;-64
2022/07/25 05:54:41;;;;;;;1.70;1.60;;;;;;;36.79;40.57;100006.88;213256;1278;956639;-65
2022/07/25 05:59:45;;;;;;;2.20;1.20;;;;;;;38.06;37.84;100009.38;213253;1279;141186;-65
2022/07/25 06:04:52;;;;;;;1.00;1.00;;;;;;;39.44;36.02;100010.73;214278;1279;140159;-67
2022/07/25 06:09:56;;;;;;;1.70;1.30;;;;;;;40.50;34.20;99998.33;214320;1279;139682;-66
2022/07/25 06:15:00;;;;;;;1.60;1.40;;;;;;;40.58;31.84;99995.90;214031;1279;139371;-66
2022/07/25 06:20:03;;;;;;;1.30;1.30;;;;;;;39.65;29.92;99988.48;214331;1279;139850;-66
2022/07/25 06:25:06;;;;;;;1.80;1.40;;;;;;;38.74;30.63;99980.42;214847;1279;141878;-67
2022/07/25 06:30:11;;;;;;;3.40;1.30;;;;;;;38.79;29.27;99983.35;215020;1279;139190;-67
2022/07/25 06:35:23;;;;;;;2.80;1.40;;;;;;;37.73;29.65;99968.40;215241;1279;139479;-67
2022/07/25 06:40:26;;;;;;;1.70;1.10;;;;;;;36.38;31.33;99961.70;215381;1279;140031;-65
2022/07/25 06:45:29;;;;;;;1.30;1.30;;;;;;;35.17;31.87;99951.78;215568;1278;141457;-65
2022/07/25 06:50:32;;;;;;;;;;;;;;;34.15;32.93;99948.91;214653;1278;140486;-63
2022/07/25 06:55:36;;;;;;;1.40;1.30;;;;;;;33.32;33.75;99954.10;214207;1277;127998;-64
2022/07/25 07:00:39;;;;;;;;;;;;;;;32.53;34.32;99955.50;214461;1279;140753;-63
2022/07/25 07:05:43;;;;;;;3.00;1.80;;;;;;;31.69;35.38;99952.38;213962;1279;128820;-65
2022/07/25 07:10:46;;;;;;;3.30;1.30;;;;;;;32.03;35.29;99947.23;212699;1279;140817;-66
2022/07/25 07:15:49;;;;;;;0.90;0.90;;;;;;;33.14;34.82;99940.98;212960;1279;141308;-65
2022/07/25 07:20:52;;;;;;;1.20;1.10;;;;;;;34.28;33.94;99937.26;213276;1279;139161;-68
2022/07/25 07:25:55;;;;;;;2.10;1.20;;;;;;;34.88;33.31;99930.09;212855;1279;140136;-67
2022/07/25 07:30:59;;;;;;;3.20;1.30;;;;;;;34.73;32.96;99924.38;213003;1278;140507;-64
2022/07/25 07:36:20;;;;;;;3.20;1.10;;;;;;;34.27;33.30;99916.48;212882;1279;142614;-64
2022/07/25 07:41:24;;;;;;;1.30;1.20;;;;;;;33.49;33.05;99920.69;212978;1279;140292;-66
2022/07/25 07:46:29;;;;;;;1.30;1.30;;;;;;;32.77;32.95;99912.30;213501;1278;140546;-66
2022/07/25 07:51:33;;;;;;;1.50;1.40;;;;;;;32.40;34.79;99912.64;213057;1278;142177;-65
2022/07/25 07:56:36;;;;;;;1.70;1.60;;;;;;;32.56;34.86;99908.08;213037;1279;140425;-64
2022/07/25 08:01:39;;;;;;;1.70;1.60;;;;;;;32.30;34.31;99905.64;214172;1279;140118;-66
2022/07/25 08:06:42;;;;;;;4.10;1.80;;;;;;;31.98;34.84;99898.16;213978;1280;140276;-64
2022/07/25 08:11:44;;;;;;;1.60;1.50;;;;;;;31.84;34.54;99892.52;214808;1278;139840;-67
2022/07/25 08:16:47;;;;;;;2.30;1.80;;;;;;;31.49;34.89;99885.71;215260;1278;140377;-67
2022/07/25 08:21:54;;;;;;;2.60;2.30;;;;;;;31.45;35.32;99882.83;214301;1279;140589;-65
2022/07/25 08:26:57;;;;;;;2.00;1.90;;;;;;;31.70;35.59;99878.79;214070;1278;140380;-66
2022/07/25 08:31:59;;;;;;;2.90;1.60;;;;;;;31.89;35.46;99880.94;215220;1279;139848;-65
2022/07/25 08:37:01;;;;;;;1.50;1.40;;;;;;;31.84;35.02;99878.74;215508;1277;140542;-65
2022/07/25 08:42:05;;;;;;;5.20;1.80;;;;;;;31.79;35.31;99875.31;215499;1277;140161;-64
2022/07/25 08:47:14;;;;;;;3.90;1.50;;;;;;;32.10;35.77;99871.52;215353;1277;139886;-65
2022/07/25 08:52:18;;;;;;;1.80;1.50;;;;;;;32.25;35.16;99870.21;213001;1277;139531;-64
2022/07/25 08:57:21;;;;;;;4.50;1.90;;;;;;;32.00;35.10;99867.93;214344;1277;140810;-65
2022/07/25 09:02:27;;;;;;;1.30;1.20;;;;;;;31.89;35.51;99866.20;214754;1280;141124;-65
2022/07/25 09:07:37;;;;;;;2.00;1.90;;;;;;;31.90;35.52;99865.59;212661;1279;140345;-66
2022/07/25 09:12:42;;;;;;;1.90;1.80;;;;;;;31.68;34.89;99862.07;212709;1279;140166;-65
2022/07/25 09:17:50;;;;;;;1.80;1.70;;;;;;;31.18;34.46;99858.41;213684;1277;139535;-66
2022/07/25 09:22:54;;;;;;;1.20;1.20;;;;;;;31.20;35.81;99856.48;213152;1279;139899;-65
2022/07/25 09:28:18;;;;;;;6.20;2.00;;;;;;;31.23;35.30;99855.26;212746;1279;139773;-67
2022/07/25 09:33:23;;;;;;;1.60;1.50;;;;;;;31.35;35.65;99848.84;213864;1277;140197;-67
2022/07/25 09:38:27;;;;;;;1.90;1.50;;;;;;;31.20;34.72;99842.70;213767;1277;140254;-70
2022/07/25 09:43:41;;;;;;;2.00;1.90;;;;;;;31.12;35.27;99840.32;213159;1277;140495;-65
2022/07/25 09:48:55;;;;;;;1.70;1.60;;;;;;;31.27;34.76;99829.50;212857;1277;140930;-67
2022/07/25 09:53:59;;;;;;;2.10;2.00;;;;;;;31.30;34.63;99824.92;213685;1281;151364;-67
2022/07/25 09:59:03;;;;;;;1.90;1.70;;;;;;;31.38;35.12;99818.90;212752;1278;142192;-65
2022/07/25 10:04:18;;;;;;;3.80;2.50;;;;;;;31.46;34.68;99818.23;213264;1281;140256;-66
2022/07/25 10:09:22;;;;;;;1.90;1.70;;;;;;;31.38;34.27;99811.42;214622;1279;140325;-65
2022/07/25 10:14:25;;;;;;;1.60;1.50;;;;;;;31.53;34.24;99800.03;214550;1278;141555;-66
2022/07/25 10:19:47;;;;;;;1.70;1.60;;;;;;;31.56;33.73;99790.16;214709;1279;139817;-65
2022/07/25 10:25:09;;;;;;;3.30;1.80;;;;;;;31.20;33.68;99784.33;215468;1278;140865;-68
2022/07/25 10:30:19;;;;;;;1.80;1.50;;;;;;;31.37;34.23;99783.54;215230;1278;140428;-66
2022/07/25 10:35:21;;;;;;;2.50;2.00;;;;;;;31.73;33.88;99772.54;215261;1278;140192;-68
2022/07/25 10:40:31;;;;;;;3.00;2.30;;;;;;;32.01;33.69;99770.48;214682;1279;140441;-68
2022/07/25 10:45:43;;;;;;;1.20;1.20;;;;;;;32.09;33.27;99765.14;214413;1279;139723;-66
2022/07/25 10:50:56;;;;;;;1.60;1.50;;;;;;;31.94;32.79;99766.95;213393;1278;139336;-65
2022/07/25 10:56:04;;;;;;;7.50;2.10;;;;;;;31.77;33.67;99763.61;213712;1277;141250;-66
2022/07/25 11:01:08;;;;;;;1.60;1.50;;;;;;;31.90;32.97;99763.19;213382;1277;139912;-66
2022/07/25 11:06:13;;;;;;;1.40;1.30;;;;;;;31.91;32.36;99751.95;213131;1277;139872;-66
2022/07/25 11:11:16;;;;;;;3.00;1.70;;;;;;;31.89;32.47;99748.38;213799;1278;139769;-65
2022/07/25 11:16:26;;;;;;;3.10;1.40;;;;;;;31.50;32.05;99743.27;213494;1277;140280;-65
2022/07/25 11:21:29;;;;;;;1.30;1.30;;;;;;;31.56;32.76;99734.44;212693;1279;141054;-67
2022/07/25 11:26:31;;;;;;;1.00;1.00;;;;;;;31.46;32.30;99724.23;213779;1277;140400;-65
2022/07/25 11:31:36;;;;;;;1.40;1.20;;;;;;;31.29;32.49;99721.02;213029;1279;140027;-65
2022/07/25 11:36:39;;;;;;;1.50;1.40;;;;;;;31.39;32.37;99710.46;213068;1279;139525;-66
2022/07/25 11:41:42;;;;;;;1.50;1.30;;;;;;;31.60;32.11;99710.23;213840;1279;139383;-66
2022/07/25 11:46:48;;;;;;;4.50;1.80;;;;;;;31.53;31.79;99702.74;212746;1279;139980;-67
2022/07/25 11:51:56;;;;;;;1.80;1.70;;;;;;;31.51;31.64;99692.73;213517;1279;141541;-65
2022/07/25 11:57:00;;;;;;;1.70;1.60;;;;;;;31.49;32.16;99683.42;214109;1277;139632;-65
2022/07/25 12:02:04;;;;;;;1.90;1.50;;;;;;;31.42;31.62;99676.55;213332;1277;139657;-65
2022/07/25 12:07:09;;;;;;;2.30;1.80;;;;;;;31.40;31.73;99670.35;214253;1277;140282;-65
2022/07/25 12:12:16;;;;;;;1.20;1.20;;;;;;;31.40;31.37;99663.80;214317;1277;139983;-65
2022/07/25 12:17:20;;;;;;;1.10;1.10;;;;;;;31.23;31.25;99650.22;214568;1279;141299;-65
2022/07/25 12:22:26;;;;;;;1.20;1.10;;;;;;;31.30;31.53;99648.81;215245;1278;150537;-65
2022/07/25 12:27:32;;;;;;;1.20;1.10;;;;;;;31.44;31.47;99644.41;214552;1278;140172;-66
2022/07/25 12:32:36;;;;;;;1.20;1.20;;;;;;;31.41;31.08;99635.42;215331;1278;139292;-64
2022/07/25 12:37:41;;;;;;;1.20;1.20;;;;;;;31.53;31.08;99626.23;214839;1278;140262;-64
2022/07/25 12:42:47;;;;;;;1.60;1.50;;;;;;;31.59;31.54;99621.58;214736;1278;141462;-66
2022/07/25 12:47:50;;;;;;;1.20;1.20;;;;;;;31.58;31.28;99617.15;213802;1277;141825;-67
2022/07/25 12:52:53;;;;;;;1.20;1.10;;;;;;;31.46;31.09;99611.93;213565;1277;140613;-66
2022/07/25 12:57:56;;;;;;;1.70;1.30;;;;;;;31.41;30.97;99607.64;213011;1278;141180;-66
2022/07/25 13:02:59;;;;;;;1.10;1.10;;;;;;;31.42;31.07;99595.84;213115;1278;140483;-64
2022/07/25 13:08:06;;;;;;;1.60;1.60;;;;;;;31.24;30.96;99587.83;213906;1278;141054;-64
2022/07/25 13:13:08;;;;;;;1.20;1.10;;;;;;;31.04;30.37;99581.45;213804;1279;139985;-65
2022/07/25 13:18:14;;;;;;;1.70;1.40;;;;;;;31.04;30.70;99578.23;212821;1279;140428;-64
2022/07/25 13:23:18;;;;;;;3.30;1.70;;;;;;;30.95;31.26;99571.58;212733;1278;140203;-65
2022/07/25 13:28:23;;;;;;;2.10;1.20;;;;;;;30.89;30.90;99563.26;212960;1277;140581;-65
2022/07/25 13:33:27;;;;;;;3.20;1.60;;;;;;;30.86;30.71;99560.55;212628;1278;140427;-64
2022/07/25 13:38:29;;;;;;;1.60;1.50;;;;;;;30.94;30.62;99548.77;213494;1278;151651;-64
2022/07/25 13:43:33;;;;;;;1.40;1.30;;;;;;;31.18;30.55;99546.84;213325;1278;141145;-64
2022/07/25 13:48:36;;;;;;;1.90;1.80;;;;;;;31.13;30.53;99543.59;213995;1278;141673;-66
2022/07/25 13:53:40;;;;;;;1.50;1.40;;;;;;;31.09;30.60;99537.23;213191;1278;141033;-66
2022/07/25 13:58:43;;;;;;;1.80;1.70;;;;;;;31.09;30.34;99524.41;214565;1277;142336;-66
2022/07/25 14:03:49;;;;;;;1.80;1.70;;;;;;;31.07;30.57;99514.09;213694;1277;140887;-65
2022/07/25 14:08:52;;;;;;;1.20;1.20;;;;;;;30.99;30.67;99508.33;212855;1278;140226;-65
2022/07/25 14:13:55;;;;;;;1.60;1.50;;;;;;;30.91;30.54;99498.41;214352;1278;141119;-65
2022/07/25 14:19:00;;;;;;;1.60;1.50;;;;;;;30.85;30.27;99494.98;215591;1277;139999;-68
2022/07/25 14:24:04;;;;;;;1.60;1.50;;;;;;;30.97;30.28;99486.52;215532;1277;142240;-66
2022/07/25 14:29:09;;;;;;;8.00;1.90;;;;;;;30.92;30.52;99488.35;215577;1277;139989;-66
2022/07/25 14:34:14;;;;;;;2.00;1.60;;;;;;;30.75;30.72;99479.69;215447;1279;139943;-66
2022/07/25 14:39:17;;;;;;;2.60;2.10;;;;;;;30.70;30.51;99472.15;214627;1277;139275;-66
2022/07/25 14:44:20;;;;;;;1.70;1.60;;;;;;;30.71;30.69;99458.64;214940;1278;140002;-65
2022/07/25 14:49:23;;;;;;;3.40;1.90;;;;;;;30.81;30.51;99448.61;214281;1278;140380;-63
2022/07/25 14:54:27;;;;;;;1.70;1.60;;;;;;;30.92;30.40;99443.61;213963;1278;139636;-63
2022/07/25 14:59:29;;;;;;;2.00;1.90;;;;;;;30.88;30.36;99440.58;212729;1279;139471;-63
2022/07/25 15:04:32;;;;;;;1.80;1.50;;;;;;;30.84;30.45;99434.73;213633;1279;139389;-64
2022/07/25 15:09:35;;;;;;;2.30;2.10;;;;;;;30.84;30.42;99428.76;213995;1279;139537;-65
2022/07/25 15:14:40;;;;;;;3.30;2.10;;;;;;;30.90;30.55;99427.70;213484;1278;140985;-65
2022/07/25 15:19:43;;;;;;;2.60;2.20;;;;;;;30.79;30.38;99419.98;213100;1277;141317;-65
2022/07/25 15:24:47;;;;;;;1.20;1.20;;;;;;;30.81;30.62;99415.84;212880;1278;140247;-65
2022/07/25 15:30:11;;;;;;;1.80;1.70;;;;;;;30.85;30.76;99409.98;212928;1275;141698;-64
2022/07/25 15:35:15;;;;;;;1.20;1.20;;;;;;;30.80;30.47;99399.55;213442;1278;140479;-63
2022/07/25 15:40:21;;;;;;;1.70;1.70;;;;;;;30.75;30.85;99396.58;212678;1278;140240;-64
2022/07/25 15:45:24;;;;;;;3.30;1.90;;;;;;;30.66;30.60;99389.95;212928;1277;140771;-62
2022/07/25 15:50:44;;;;;;;1.80;1.70;;;;;;;30.46;30.66;99385.80;213462;1277;139603;-63
2022/07/25 15:55:48;;;;;;;1.60;1.50;;;;;;;30.34;30.83;99377.25;212912;1277;139817;-63
2022/07/25 16:00:50;;;;;;;2.30;2.10;;;;;;;30.16;30.88;99372.33;214614;1277;139531;-64
2022/07/25 16:05:54;;;;;;;3.00;2.10;;;;;;;29.99;31.36;99370.45;213061;1278;140021;-62
2022/07/25 16:10:59;;;;;;;3.60;2.50;;;;;;;29.95;31.62;99361.36;214678;1278;140495;-64
2022/07/25 16:16:02;;;;;;;1.80;1.60;;;;;;;29.84;31.49;99357.45;215247;1278;139949;-67
2022/07/25 16:21:05;;;;;;;2.70;2.30;;;;;;;29.83;31.65;99350.84;215472;1277;139788;-67
2022/07/25 16:26:11;;;;;;;2.10;1.90;;;;;;;29.77;31.71;99349.34;214161;1277;140293;-63
2022/07/25 16:31:15;;;;;;;1.80;1.70;;;;;;;29.74;32.12;99347.33;215384;1277;140233;-64
2022/07/25 16:36:19;;;;;;;1.90;1.70;;;;;;;29.68;31.64;99347.58;213081;1278;140041;-64
2022/07/25 16:41:21;;;;;;;1.40;1.30;;;;;;;29.60;31.56;99349.34;214414;1277;140285;-63
2022/07/25 16:46:25;;;;;;;2.00;1.90;;;;;;;29.48;31.58;99349.41;213042;1278;140161;-60
2022/07/25 16:51:31;;;;;;;2.00;1.80;;;;;;;29.38;31.76;99350.81;214058;1279;139170;-62
2022/07/25 16:56:40;;;;;;;2.10;1.90;;;;;;;29.27;31.92;99348.20;214300;1278;140178;-63
2022/07/25 17:01:45;;;;;;;1.80;1.60;;;;;;;29.14;32.62;99343.84;213207;1279;205908;-63
2022/07/25 17:06:48;;;;;;;1.60;1.50;;;;;;;29.01;32.04;99338.85;213017;1279;139542;-63
2022/07/25 17:11:51;;;;;;;1.50;1.10;;;;;;;28.90;32.15;99339.30;212717;1279;141095;-63
2022/07/25 17:16:54;;;;;;;4.20;1.60;;;;;;;28.81;32.65;99333.48;213080;1277;140954;-63
2022/07/25 17:21:57;;;;;;;1.80;1.70;;;;;;;28.69;32.72;99327.56;212907;1279;139896;-62
2022/07/25 17:27:01;;;;;;;2.60;1.80;;;;;;;28.57;33.04;99325.77;213228;1278;140451;-65
2022/07/25 17:32:06;;;;;;;2.10;1.70;;;;;;;28.43;33.34;99317.59;213074;1278;139985;-64
2022/07/25 17:37:10;;;;;;;4.00;2.50;;;;;;;28.27;33.63;99304.54;213277;1279;140166;-63
2022/07/25 17:42:19;;;;;;;3.10;1.90;;;;;;;28.10;34.15;99296.75;213515;1279;140373;-65
2022/07/25 17:47:22;;;;;;;2.40;2.00;;;;;;;27.97;35.14;99299.01;213104;1277;231914;-63
2022/07/25 17:52:25;;;;;;;2.00;1.90;;;;;;;27.82;35.58;99299.16;213068;1277;1013673;-65
2022/07/25 17:57:28;;;;;;;16.90;3.00;;;;;;;27.66;36.29;99303.74;213829;1278;140126;-63
2022/07/25 18:02:31;;;;;;;2.20;2.00;;;;;;;27.46;37.29;99295.85;214379;1277;139683;-66
2022/07/25 18:07:43;;;;;;;3.80;1.90;;;;;;;27.17;37.60;99289.59;215111;1277;140317;-64
2022/07/25 18:12:48;;;;;;;3.10;2.10;;;;;;;26.88;37.79;99279.48;215579;1278;140009;-64
2022/07/25 18:17:51;;;;;;;2.10;2.00;;;;;;;26.65;38.89;99276.19;215430;1277;139975;-65
2022/07/25 18:22:54;;;;;;;7.10;2.30;;;;;;;26.39;39.79;99267.02;215400;1278;140278;-64
2022/07/25 18:27:59;;;;;;;2.10;2.00;;;;;;;26.14;40.47;99264.68;215274;1278;140293;-65
2022/07/25 18:33:01;;;;;;;2.10;2.00;;;;;;;25.84;40.74;99267.71;215403;1278;140265;-65
2022/07/25 18:38:05;;;;;;;3.20;2.30;;;;;;;25.53;41.23;99259.46;213619;1278;139766;-63
2022/07/25 18:43:07;;;;;;;2.30;2.10;;;;;;;25.18;42.00;99259.66;214530;1279;139701;-63
2022/07/25 18:48:13;;;;;;;4.00;2.30;;;;;;;24.87;42.58;99258.25;213915;1279;140883;-64
2022/07/25 18:53:17;;;;;;;2.10;2.00;;;;;;;24.44;43.68;99260.81;214450;1278;140246;-64
2022/07/25 18:58:21;;;;;;;3.20;2.40;;;;;;;24.11;44.92;99256.22;213716;1278;140338;-64
2022/07/25 19:03:26;;;;;;;2.30;2.10;;;;;;;23.88;45.83;99255.41;213427;1277;139484;-64
2022/07/25 19:08:31;;;;;;;2.60;2.40;;;;;;;23.66;46.53;99258.96;213824;1277;139932;-63
2022/07/25 19:13:45;;;;;;;2.20;2.10;;;;;;;23.48;46.15;99258.14;213873;1277;139446;-64
2022/07/25 19:18:53;;;;;;;4.80;2.50;;;;;;;23.35;46.18;99256.83;214081;1277;139783;-63
2022/07/25 19:23:56;;;;;;;4.20;3.40;;;;;;;23.24;46.14;99248.89;213628;1278;140909;-64
2022/07/25 19:29:00;;;;;;;2.40;2.20;;;;;;;23.15;46.03;99247.80;212898;1279;140908;-63
2022/07/25 19:34:04;;;;;;;4.10;3.00;;;;;;;23.05;46.25;99248.11;212747;1279;142148;-65
2022/07/25 19:39:07;;;;;;;2.70;2.50;;;;;;;22.95;46.16;99252.80;214106;1278;140725;-64
2022/07/25 19:44:09;;;;;;;2.10;2.00;;;;;;;22.82;46.40;99256.48;213136;1279;151288;-63
2022/07/25 19:49:13;;;;;;;2.20;2.00;;;;;;;22.69;46.76;99261.14;212950;1278;141051;-63
2022/07/25 19:54:17;;;;;;;2.70;2.50;;;;;;;22.58;47.00;99263.33;215079;1278;140175;-64
2022/07/25 19:59:21;;;;;;;2.40;2.20;;;;;;;22.47;47.19;99262.48;212623;1278;141510;-63
2022/07/25 20:04:27;;;;;;;3.40;2.30;;;;;;;22.35;47.42;99259.50;212749;1279;140240;-64
2022/07/25 20:09:31;;;;;;;1.70;1.60;;;;;;;22.24;47.73;99256.38;215453;1279;140230;-65
2022/07/25 20:14:35;;;;;;;4.70;1.70;;;;;;;22.11;47.74;99258.31;215357;1279;140337;-64
2022/07/25 20:19:39;;;;;;;4.20;2.20;;;;;;;22.00;47.93;99254.02;215548;1278;140492;-65
2022/07/25 20:24:43;;;;;;;3.40;2.30;;;;;;;21.89;48.36;99253.29;215211;1279;142221;-64
2022/07/25 20:29:46;;;;;;;3.30;2.20;;;;;;;21.79;48.54;99253.83;214152;1278;140596;-63
2022/07/25 20:34:49;;;;;;;2.10;2.00;;;;;;;21.68;48.63;99251.70;213951;1279;140557;-65
2022/07/25 20:39:52;;;;;;;2.80;2.50;;;;;;;21.60;48.94;99247.36;212872;1278;141717;-67
2022/07/25 20:44:55;;;;;;;7.20;2.30;;;;;;;21.49;48.94;99256.92;214139;1279;140518;-66
2022/07/25 20:49:58;;;;;;;2.40;2.30;;;;;;;21.39;48.88;99257.17;214141;1279;141356;-67
2022/07/25 20:55:02;;;;;;;4.30;2.50;;;;;;;21.33;49.01;99265.44;212857;1278;140908;-65
2022/07/25 21:00:09;;;;;;;6.40;2.70;;;;;;;21.25;49.37;99274.66;212809;1279;140511;-64
2022/07/25 21:05:13;;;;;;;2.40;2.20;;;;;;;21.15;49.56;99270.23;214337;1277;140073;-63
2022/07/25 21:10:16;;;;;;;3.10;2.50;;;;;;;21.08;49.59;99277.79;213969;1279;139870;-64
2022/07/25 21:15:21;;;;;;;6.00;3.20;;;;;;;21.01;49.96;99273.02;213466;1278;141501;-64
2022/07/25 21:20:25;;;;;;;2.90;2.60;;;;;;;20.90;50.46;99269.58;213162;1278;140885;-64
2022/07/25 21:25:29;;;;;;;2.60;2.20;;;;;;;20.78;50.94;99266.98;213095;1279;141077;-65
2022/07/25 21:30:39;;;;;;;11.40;3.50;;;;;;;20.65;51.24;99270.21;212764;1279;144715;-65
2022/07/25 21:35:43;;;;;;;4.80;2.70;;;;;;;20.52;51.59;99264.06;212897;1279;141499;-66
2022/07/25 21:41:00;;;;;;;14.10;2.40;;;;;;;20.38;51.79;99256.73;212877;1279;142225;-66
2022/07/25 21:46:06;;;;;;;2.90;2.70;;;;;;;20.27;52.09;99246.65;213519;1279;140529;-65
2022/07/25 21:51:09;;;;;;;5.70;3.20;;;;;;;20.19;51.79;99235.40;213195;1279;140210;-65
2022/07/25 21:56:22;;;;;;;4.00;2.70;;;;;;;20.12;51.97;99225.89;213265;1279;141414;-66
2022/07/25 22:01:31;;;;;;;3.20;2.90;;;;;;;20.08;52.06;99222.70;214468;1278;139957;-66
2022/07/25 22:06:34;;;;;;;2.90;2.10;;;;;;;20.03;52.22;99218.21;214372;1278;141978;-67
2022/07/25 22:11:37;;;;;;;5.60;3.10;;;;;;;19.98;52.18;99213.79;215364;1279;140156;-67
2022/07/25 22:16:49;;;;;;;2.40;2.20;;;;;;;19.97;52.13;99207.92;215306;1278;141210;-66
2022/07/25 22:21:53;;;;;;;2.70;2.50;;;;;;;19.94;52.30;99196.64;214359;1279;141354;-65
2022/07/25 22:27:01;;;;;;;3.10;2.90;;;;;;;19.92;52.19;99187.23;215435;1278;139811;-65
2022/07/25 22:32:04;;;;;;;3.00;2.80;;;;;;;19.90;52.37;99180.95;214048;1278;141216;-65
2022/07/25 22:37:09;;;;;;;2.40;2.20;;;;;;;19.85;52.60;99172.39;214981;1278;141041;-63
2022/07/25 22:42:12;;;;;;;3.20;2.90;;;;;;;19.77;52.67;99165.59;214334;1279;140901;-64
2022/07/25 22:47:18;;;;;;;4.50;2.90;;;;;;;19.76;52.50;99164.00;213391;1278;140198;-64
2022/07/25 22:52:21;;;;;;;3.60;2.70;;;;;;;19.72;52.72;99158.73;213840;1279;141545;-65
2022/07/25 22:57:23;;;;;;;3.30;2.60;;;;;;;19.68;52.82;99162.14;212861;1277;141940;-65
2022/07/25 23:02:26;;;;;;;3.70;2.90;;;;;;;19.64;52.94;99167.05;213433;1279;140850;-64
2022/07/25 23:07:28;;;;;;;2.60;2.40;;;;;;;19.59;52.92;99169.54;213135;1278;161487;-65
2022/07/25 23:12:31;;;;;;;2.80;2.60;;;;;;;19.56;52.95;99157.69;212756;1279;141065;-64